createdAt,value
2023-02-11T00:01:42.975Z,98334.22
2023-02-11T00:04:11.198Z,98341.75
2023-02-11T00:06:40.322Z,98337.25
2023-02-11T00:09:08.730Z,98332.78
2023-02-11T00:11:39.050Z,98330.81
2023-02-11T00:14:08.812Z,98328.91
2023-02-11T00:16:37.579Z,98321.56
2023-02-11T00:19:06.913Z,98330.53
2023-02-11T00:21:35.873Z,98320.81
2023-02-11T00:24:04.988Z,98314.53
2023-02-11T00:26:35.083Z,98323.38
2023-02-11T00:29:06.502Z,98320.81
2023-02-11T00:31:35.703Z,98318.88
2023-02-11T00:34:06.403Z,98317.06
2023-02-11T00:36:35.537Z,98322.41
2023-02-11T00:39:04.057Z,98313.66
2023-02-11T00:41:33.149Z,98312.25
2023-02-11T00:44:02.505Z,98287.00
2023-02-11T00:46:32.357Z,98308.88
2023-02-11T00:49:01.810Z,98307.41
2023-02-11T00:51:30.353Z,98314.28
2023-02-11T00:53:59.758Z,98302.84
2023-02-11T00:56:28.196Z,98313.00
2023-02-11T00:58:58.249Z,98321.72
2023-02-11T01:01:26.956Z,98317.50
2023-02-11T01:03:57.342Z,98301.81
2023-02-11T01:06:25.756Z,98291.44
2023-02-11T01:08:54.628Z,98297.09
2023-02-11T01:11:23.261Z,98303.50
2023-02-11T01:13:52.456Z,98313.03
2023-02-11T01:16:21.993Z,98306.38
2023-02-11T01:18:51.309Z,98306.28
2023-02-11T01:21:20.966Z,98309.44
2023-02-11T01:23:51.845Z,98311.97
2023-02-11T01:26:20.482Z,98313.78
2023-02-11T01:28:50.408Z,98315.00
2023-02-11T01:31:19.178Z,98311.63
2023-02-11T01:33:47.946Z,98309.44
2023-02-11T01:36:16.338Z,98311.75
2023-02-11T01:38:47.020Z,98306.44
2023-02-11T01:41:15.876Z,98303.28
2023-02-11T01:43:47.585Z,98304.16
2023-02-11T01:46:25.704Z,98297.97
2023-02-11T01:48:58.687Z,98295.31
2023-02-11T01:51:33.862Z,98297.88
2023-02-11T01:54:26.030Z,98290.13
2023-02-11T01:57:15.377Z,98284.44
2023-02-11T01:59:49.275Z,98276.09
2023-02-11T02:02:23.501Z,98273.44
2023-02-11T02:04:56.738Z,98257.16
2023-02-11T02:07:33.559Z,98255.97
2023-02-11T02:10:08.855Z,98266.47
2023-02-11T02:12:38.212Z,98252.44
2023-02-11T02:15:22.227Z,98250.03
2023-02-11T02:17:59.218Z,98251.72
2023-02-11T02:20:53.874Z,98251.97
2023-02-11T02:23:37.047Z,98242.75
2023-02-11T02:26:46.806Z,98237.00
2023-02-11T02:29:44.426Z,98238.81
2023-02-11T02:32:25.596Z,98226.44
2023-02-11T02:35:00.099Z,98227.44
2023-02-11T02:37:35.831Z,98219.09
2023-02-11T02:40:11.847Z,98220.47
2023-02-11T02:42:42.224Z,98223.97
2023-02-11T02:45:13.399Z,98220.47
2023-02-11T02:47:43.176Z,98214.28
2023-02-11T02:50:16.732Z,98218.03
2023-02-11T02:52:56.014Z,98212.00
2023-02-11T02:55:49.943Z,98220.69
2023-02-11T02:58:32.650Z,98218.16
2023-02-11T03:01:09.494Z,98204.63
2023-02-11T03:03:48.686Z,98205.59
2023-02-11T03:06:24.802Z,98207.78
2023-02-11T03:08:59.593Z,98215.13
2023-02-11T03:11:30.061Z,98215.75
2023-02-11T03:14:03.865Z,98210.31
2023-02-11T03:16:36.104Z,98209.56
2023-02-11T03:19:12.136Z,98209.56
2023-02-11T03:21:43.986Z,98203.88
2023-02-11T03:24:18.669Z,98203.03
2023-02-11T03:26:51.440Z,98214.28
2023-02-11T03:29:31.917Z,98216.81
2023-02-11T03:32:07.755Z,98221.03
2023-02-11T03:34:46.101Z,98225.03
2023-02-11T03:37:18.960Z,98235.28
2023-02-11T03:39:54.020Z,98238.56
2023-02-11T03:42:26.006Z,98235.75
2023-02-11T03:45:01.982Z,98231.78
2023-02-11T03:47:34.904Z,98226.72
2023-02-11T03:50:07.408Z,98212.47
2023-02-11T03:52:37.949Z,98223.94
2023-02-11T03:55:12.570Z,98218.28
2023-02-11T03:57:41.093Z,98223.72
2023-02-11T04:00:11.307Z,98226.03
2023-02-11T04:02:41.252Z,98224.56
2023-02-11T04:05:14.039Z,98222.53
2023-02-11T04:07:43.198Z,98224.78
2023-02-11T04:10:12.790Z,98235.22
2023-02-11T04:12:41.669Z,98241.38
2023-02-11T04:15:10.443Z,98247.88
2023-02-11T04:17:39.195Z,98256.69
2023-02-11T04:20:09.475Z,98247.88
2023-02-11T04:22:39.521Z,98246.31
2023-02-11T04:25:09.755Z,98246.94
2023-02-11T04:27:38.277Z,98246.19
2023-02-11T04:30:09.015Z,98247.06
2023-02-11T04:32:37.352Z,98242.59
2023-02-11T04:35:07.270Z,98242.31
2023-02-11T04:37:35.630Z,98235.56
2023-02-11T04:40:06.782Z,98220.19
2023-02-11T04:42:35.034Z,98220.31
2023-02-11T04:45:04.372Z,98212.34
2023-02-11T04:47:33.104Z,98214.78
2023-02-11T04:50:01.443Z,98211.63
2023-02-11T04:52:30.682Z,98208.97
2023-02-11T04:54:58.987Z,98194.59
2023-02-11T04:57:29.455Z,98198.56
2023-02-11T04:59:57.854Z,98201.00
2023-02-11T05:02:27.178Z,98198.44
2023-02-11T05:04:55.904Z,98195.56
2023-02-11T05:07:24.882Z,98193.03
2023-02-11T05:09:53.548Z,98189.97
2023-02-11T05:12:21.908Z,98196.25
2023-02-11T05:14:52.398Z,98192.22
2023-02-11T05:17:20.638Z,98195.38
2023-02-11T05:19:49.782Z,98186.56
2023-02-11T05:22:18.130Z,98210.72
2023-02-11T05:24:47.284Z,98198.72
2023-02-11T05:27:15.575Z,98200.16
2023-02-11T05:29:45.335Z,98197.50
2023-02-11T05:32:15.017Z,98189.78
2023-02-11T05:34:44.282Z,98203.91
2023-02-11T05:37:12.956Z,98199.06
2023-02-11T05:39:42.599Z,98195.44
2023-02-11T05:42:10.898Z,98182.72
2023-02-11T05:44:40.326Z,98187.31
2023-02-11T05:47:09.294Z,98197.13
2023-02-11T05:49:39.820Z,98188.81
2023-02-11T05:52:08.092Z,98194.84
2023-02-11T05:54:37.247Z,98198.47
2023-02-11T05:57:06.127Z,98196.41
2023-02-11T05:59:34.430Z,98199.78
2023-02-11T06:02:03.633Z,98197.13
2023-02-11T06:04:31.955Z,98209.28
2023-02-11T06:07:02.299Z,98198.16
2023-02-11T06:09:31.008Z,98193.41
2023-02-11T06:11:59.323Z,98196.66
2023-02-11T06:14:27.996Z,98180.69
2023-02-11T06:16:56.298Z,98178.91
2023-02-11T06:19:25.626Z,98177.72
2023-02-11T06:21:53.929Z,98182.94
2023-02-11T06:24:44.304Z,98185.34
2023-02-11T06:27:14.202Z,98197.88
2023-02-11T06:29:42.452Z,98189.66
2023-02-11T06:32:29.900Z,98198.63
2023-02-11T06:35:01.599Z,98198.72
2023-02-11T06:37:30.779Z,98186.25
2023-02-11T06:40:00.449Z,98184.56
2023-02-11T06:42:29.966Z,98183.03
2023-02-11T06:44:58.233Z,98187.50
2023-02-11T06:47:26.601Z,98193.16
2023-02-11T06:49:54.852Z,98186.47
2023-02-11T06:52:23.149Z,98190.09
2023-02-11T06:54:51.808Z,98184.41
2023-02-11T06:57:21.870Z,98179.78
2023-02-11T06:59:50.735Z,98170.47
2023-02-11T07:02:20.914Z,98166.97
2023-02-11T07:04:49.817Z,98174.97
2023-02-11T07:07:18.105Z,98170.47
2023-02-11T07:09:46.740Z,98168.09
2023-02-11T07:12:15.465Z,98171.34
2023-02-11T07:14:45.397Z,98176.78
2023-02-11T07:17:14.143Z,98181.75
2023-02-11T07:19:42.503Z,98175.50
2023-02-11T07:22:10.908Z,98176.28
2023-02-11T07:24:39.240Z,98183.63
2023-02-11T07:27:07.718Z,98184.47
2023-02-11T07:29:37.331Z,98178.47
2023-02-11T07:32:07.193Z,98172.78
2023-02-11T07:34:36.373Z,98172.63
2023-02-11T07:37:04.725Z,98165.75
2023-02-11T07:39:33.140Z,98169.66
2023-02-11T07:42:01.392Z,98174.72
2023-02-11T07:44:30.226Z,98164.47
2023-02-11T07:46:58.570Z,98167.78
2023-02-11T07:49:28.173Z,98143.16
2023-02-11T07:51:57.175Z,98165.44
2023-02-11T07:54:25.440Z,98168.09
2023-02-11T07:56:54.439Z,98171.00
2023-02-11T07:59:24.798Z,98173.16
2023-02-11T08:01:53.328Z,98174.19
2023-02-11T08:04:21.663Z,98171.00
2023-02-11T08:06:53.361Z,98156.91
2023-02-11T08:09:21.781Z,98155.25
2023-02-11T08:11:50.640Z,98147.81
2023-02-11T08:14:20.402Z,98154.22
2023-02-11T08:16:49.305Z,98149.88
2023-02-11T08:19:18.389Z,98148.06
2023-02-11T08:21:47.448Z,98151.78
2023-02-11T08:24:17.301Z,98164.00
2023-02-11T08:26:45.761Z,98162.22
2023-02-11T08:29:16.313Z,98171.22
2023-02-11T08:31:47.667Z,98175.00
2023-02-11T08:34:19.373Z,98176.41
2023-02-11T08:36:48.883Z,98167.28
2023-02-11T08:39:21.159Z,98187.66
2023-02-11T08:41:51.892Z,98187.38
2023-02-11T08:44:20.986Z,98177.56
2023-02-11T08:46:50.221Z,98180.50
2023-02-11T08:49:18.819Z,98187.25
2023-02-11T08:51:47.495Z,98191.19
2023-02-11T08:54:16.987Z,98199.59
2023-02-11T08:56:47.107Z,98200.59
2023-02-11T08:59:17.716Z,98200.59
2023-02-11T09:01:47.246Z,98194.66
2023-02-11T09:04:16.233Z,98182.84
2023-02-11T09:06:44.552Z,98181.44
2023-02-11T09:09:15.362Z,98177.19
2023-02-11T09:11:45.556Z,98175.31
2023-02-11T09:14:20.030Z,98178.09
2023-02-11T09:16:48.991Z,98183.28
2023-02-11T09:19:18.332Z,98178.72
2023-02-11T09:21:47.117Z,98184.59
2023-02-11T09:24:15.956Z,98186.53
2023-02-11T09:26:44.500Z,98187.34
2023-02-11T09:29:13.399Z,98181.66
2023-02-11T09:31:43.452Z,98174.78
2023-02-11T09:34:12.545Z,98186.19
2023-02-11T09:36:41.797Z,98181.66
2023-02-11T09:39:14.383Z,98176.97
2023-02-11T09:42:03.685Z,98182.41
2023-02-11T09:44:34.456Z,98182.19
2023-02-11T09:47:07.927Z,98177.91
2023-02-11T09:49:41.981Z,98168.66
2023-02-11T09:52:20.196Z,98174.47
2023-02-11T09:54:56.012Z,98186.16
2023-02-11T09:57:29.162Z,98183.00
2023-02-11T09:59:58.420Z,98188.13
2023-02-11T10:02:39.830Z,98192.19
2023-02-11T10:05:21.962Z,98200.03
2023-02-11T10:07:58.713Z,98190.94
2023-02-11T10:10:42.469Z,98198.06
2023-02-11T10:13:34.484Z,98187.09
2023-02-11T10:16:10.992Z,98188.97
2023-02-11T10:18:56.156Z,98185.13
2023-02-11T10:21:33.811Z,98174.72
2023-02-11T10:24:06.804Z,98167.00
2023-02-11T10:26:37.538Z,98168.31
2023-02-11T10:29:18.703Z,98159.91
2023-02-11T10:31:47.804Z,98155.53
2023-02-11T10:34:18.440Z,98153.03
2023-02-11T10:36:47.036Z,98146.47
2023-02-11T10:39:18.731Z,98137.25
2023-02-11T10:41:49.319Z,98153.91
2023-02-11T10:44:25.545Z,98157.44
2023-02-11T10:46:55.492Z,98161.63
2023-02-11T10:49:42.586Z,98167.53
2023-02-11T10:52:16.557Z,98176.75
2023-02-11T10:54:57.606Z,98170.84
2023-02-11T10:57:31.501Z,98161.09
2023-02-11T11:00:04.183Z,98153.88
2023-02-11T11:02:39.149Z,98157.38
2023-02-11T11:05:18.622Z,98157.53
2023-02-11T11:07:55.161Z,98159.88
2023-02-11T11:10:30.869Z,98167.44
2023-02-11T11:12:59.127Z,98151.81
2023-02-11T11:15:29.893Z,98144.97
2023-02-11T11:18:21.390Z,98142.63
2023-02-11T11:21:00.498Z,98140.59
2023-02-11T11:23:31.189Z,98144.47
2023-02-11T11:26:04.383Z,98136.72
2023-02-11T11:28:38.789Z,98133.06
2023-02-11T11:31:15.177Z,98138.13
2023-02-11T11:33:46.334Z,98134.25
2023-02-11T11:36:20.999Z,98131.88
2023-02-11T11:38:53.724Z,98121.31
2023-02-11T11:41:27.528Z,98108.53
2023-02-11T11:43:57.910Z,98099.47
2023-02-11T11:46:29.994Z,98097.13
2023-02-11T11:49:14.984Z,98092.94
2023-02-11T11:51:50.174Z,98086.00
2023-02-11T11:54:21.848Z,98087.84
2023-02-11T11:56:57.246Z,98089.53
2023-02-11T11:59:26.580Z,98093.41
2023-02-11T12:02:12.722Z,98087.00
2023-02-11T12:04:57.890Z,98092.25
2023-02-11T12:07:40.254Z,98095.75
2023-02-11T12:10:29.165Z,98080.25
2023-02-11T12:13:10.424Z,98087.84
2023-02-11T12:15:48.022Z,98086.78
2023-02-11T12:18:33.381Z,98085.75
2023-02-11T12:21:17.700Z,98084.19
2023-02-11T12:23:59.421Z,98076.06
2023-02-11T12:26:37.558Z,98077.06
2023-02-11T12:29:17.992Z,98074.31
2023-02-11T12:32:00.985Z,98067.59
2023-02-11T12:34:43.203Z,98067.06
2023-02-11T12:37:23.754Z,98069.00
2023-02-11T12:40:00.334Z,98058.34
2023-02-11T12:43:02.605Z,98051.97
2023-02-11T12:45:47.597Z,98056.22
2023-02-11T12:48:34.713Z,98058.00
2023-02-11T12:51:15.722Z,98060.88
2023-02-11T12:53:56.482Z,98065.00
2023-02-11T12:56:33.083Z,98065.03
2023-02-11T12:59:06.303Z,98068.31
2023-02-11T13:01:40.643Z,98057.78
2023-02-11T13:04:17.460Z,98051.25
2023-02-11T13:06:50.505Z,98057.41
2023-02-11T13:09:23.495Z,98057.41
2023-02-11T13:11:59.326Z,98035.56
2023-02-11T13:14:32.912Z,98029.78
2023-02-11T13:17:01.767Z,98031.00
2023-02-11T13:19:35.192Z,98029.94
2023-02-11T13:22:08.383Z,98026.13
2023-02-11T13:24:45.151Z,98029.34
2023-02-11T13:27:32.772Z,98038.34
2023-02-11T13:30:28.672Z,98028.97
2023-02-11T13:33:06.529Z,98034.81
2023-02-11T13:35:36.733Z,98032.25
2023-02-11T13:38:07.846Z,98038.84
2023-02-11T13:40:39.274Z,98034.41
2023-02-11T13:43:23.155Z,98043.47
2023-02-11T13:45:53.294Z,98038.34
2023-02-11T13:48:25.597Z,98046.16
2023-02-11T13:50:57.655Z,98054.75
2023-02-11T13:53:27.889Z,98053.19
2023-02-11T13:56:08.816Z,98048.25
2023-02-11T13:58:49.210Z,98054.16
2023-02-11T14:01:42.055Z,98042.34
2023-02-11T14:04:41.900Z,98059.09
2023-02-11T14:07:45.592Z,98050.66
2023-02-11T14:10:52.846Z,98046.38
2023-02-11T14:13:25.694Z,98038.06
2023-02-11T14:16:10.135Z,98040.16
2023-02-11T14:18:54.329Z,98027.97
2023-02-11T14:21:25.023Z,98030.75
2023-02-11T14:23:56.233Z,98023.59
2023-02-11T14:26:34.998Z,98021.31
2023-02-11T14:29:11.422Z,98032.81
2023-02-11T14:31:45.010Z,98029.00
2023-02-11T14:34:40.071Z,98041.09
2023-02-11T14:37:19.000Z,98042.31
2023-02-11T14:40:04.005Z,98050.41
2023-02-11T14:42:32.737Z,98040.66
2023-02-11T14:45:07.451Z,98045.53
2023-02-11T14:47:44.158Z,98049.44
2023-02-11T14:50:20.199Z,98043.75
2023-02-11T14:52:50.535Z,98039.91
2023-02-11T14:55:30.543Z,98035.44
2023-02-11T14:58:13.884Z,98036.00
2023-02-11T15:00:51.166Z,98026.06
2023-02-11T15:03:33.555Z,98030.47
2023-02-11T15:06:06.896Z,98026.94
2023-02-11T15:08:38.181Z,98021.84
2023-02-11T15:11:12.270Z,98026.03
2023-02-11T15:13:47.316Z,98035.44
2023-02-11T15:16:19.404Z,98026.50
2023-02-11T15:18:54.260Z,98028.50
2023-02-11T15:21:25.359Z,98037.88
2023-02-11T15:23:58.565Z,98040.41
2023-02-11T15:26:27.717Z,98039.19
2023-02-11T15:28:56.133Z,98044.22
2023-02-11T15:31:26.302Z,98031.13
2023-02-11T15:33:56.245Z,98046.25
2023-02-11T15:36:36.554Z,98034.06
2023-02-11T15:39:19.131Z,98032.28
2023-02-11T15:41:47.444Z,98036.84
2023-02-11T15:44:29.867Z,98037.22
2023-02-11T15:46:58.682Z,98049.22
2023-02-11T15:49:28.705Z,98056.59
2023-02-11T15:51:58.493Z,98058.66
2023-02-11T15:54:31.585Z,98060.50
2023-02-11T15:57:05.807Z,98056.66
2023-02-11T15:59:39.496Z,98056.19
2023-02-11T16:02:10.469Z,98057.75
2023-02-11T16:04:41.083Z,98059.78
2023-02-11T16:07:42.391Z,98063.84
2023-02-11T16:10:19.666Z,98058.03
2023-02-11T16:12:56.490Z,98066.63
2023-02-11T16:15:47.239Z,98074.69
2023-02-11T16:18:38.387Z,98074.03
2023-02-11T16:21:16.625Z,98078.72
2023-02-11T16:23:52.384Z,98074.72
2023-02-11T16:26:30.279Z,98079.47
2023-02-11T16:29:08.844Z,98083.97
2023-02-11T16:31:39.879Z,98077.09
2023-02-11T16:34:20.262Z,98084.16
2023-02-11T16:36:51.147Z,98094.44
2023-02-11T16:39:22.495Z,98097.13
2023-02-11T16:41:53.306Z,98089.25
2023-02-11T16:44:21.536Z,98101.84
2023-02-11T16:46:50.205Z,98107.22
2023-02-11T16:49:25.389Z,98110.25
2023-02-11T16:51:57.283Z,98120.84
2023-02-11T16:54:27.317Z,98121.88
2023-02-11T16:56:56.603Z,98125.75
2023-02-11T16:59:25.502Z,98125.94
2023-02-11T17:01:56.828Z,98115.69
2023-02-11T17:04:28.140Z,98121.72
2023-02-11T17:06:58.941Z,98130.63
2023-02-11T17:09:31.078Z,98129.13
2023-02-11T17:12:00.206Z,98128.47
2023-02-11T17:14:29.038Z,98128.63
2023-02-11T17:16:57.653Z,98133.34
2023-02-11T17:19:25.942Z,98137.88
2023-02-11T17:21:54.480Z,98138.72
2023-02-11T17:24:24.909Z,98139.75
2023-02-11T17:26:53.545Z,98135.84
2023-02-11T17:29:24.393Z,98135.84
2023-02-11T17:31:53.956Z,98131.34
2023-02-11T17:34:23.736Z,98145.81
2023-02-11T17:36:52.814Z,98148.50
2023-02-11T17:39:21.685Z,98154.88
2023-02-11T17:41:51.266Z,98159.25
2023-02-11T17:44:20.002Z,98156.38
2023-02-11T17:46:49.293Z,98160.94
2023-02-11T17:49:17.659Z,98158.25
2023-02-11T17:51:45.985Z,98156.09
2023-02-11T17:54:17.233Z,98161.59
2023-02-11T17:56:49.273Z,98161.59
2023-02-11T17:59:21.215Z,98158.25
2023-02-11T18:01:50.222Z,98156.94
2023-02-11T18:04:20.180Z,98158.28
2023-02-11T18:06:50.654Z,98151.22
2023-02-11T18:09:19.052Z,98150.56
2023-02-11T18:11:48.947Z,98162.66
2023-02-11T18:14:17.370Z,98160.31
2023-02-11T18:16:50.558Z,98159.28
2023-02-11T18:19:19.609Z,98160.44
2023-02-11T18:21:50.931Z,98161.28
2023-02-11T18:24:19.831Z,98159.31
2023-02-11T18:26:48.585Z,98160.13
2023-02-11T18:29:17.500Z,98166.53
2023-02-11T18:31:47.248Z,98156.75
2023-02-11T18:34:17.321Z,98159.63
2023-02-11T18:36:45.646Z,98164.34
2023-02-11T18:39:14.511Z,98162.00
2023-02-11T18:41:43.574Z,98161.47
2023-02-11T18:44:14.483Z,98175.28
2023-02-11T18:46:42.921Z,98172.59
2023-02-11T18:49:13.225Z,98171.75
2023-02-11T18:51:42.690Z,98168.69
2023-02-11T18:54:11.123Z,98174.38
2023-02-11T18:56:39.466Z,98181.75
2023-02-11T18:59:07.922Z,98184.13
2023-02-11T19:01:39.962Z,98184.13
2023-02-11T19:04:08.395Z,98180.25
2023-02-11T19:06:39.030Z,98189.16
2023-02-11T19:09:16.761Z,98176.06
2023-02-11T19:11:48.869Z,98160.59
2023-02-11T19:14:21.315Z,98174.72
2023-02-11T19:16:51.735Z,98176.03
2023-02-11T19:19:23.183Z,98177.88
2023-02-11T19:21:53.034Z,98178.72
2023-02-11T19:24:23.625Z,98174.22
2023-02-11T19:26:53.311Z,98176.03
2023-02-11T19:29:22.593Z,98183.13
2023-02-11T19:31:51.056Z,98191.50
2023-02-11T19:34:21.296Z,98186.28
2023-02-11T19:36:50.873Z,98168.63
2023-02-11T19:39:21.348Z,98180.06
2023-02-11T19:41:49.671Z,98198.72
2023-02-11T19:44:19.364Z,98192.50
2023-02-11T19:46:48.802Z,98192.50
2023-02-11T19:49:22.947Z,98210.47
2023-02-11T19:51:51.603Z,98194.53
2023-02-11T19:54:22.028Z,98206.59
2023-02-11T19:56:50.466Z,98192.50
2023-02-11T19:59:19.214Z,98203.06
2023-02-11T20:01:49.033Z,98214.00
2023-02-11T20:04:18.787Z,98216.03
2023-02-11T20:06:48.262Z,98205.75
2023-02-11T20:09:17.101Z,98224.75
2023-02-11T20:11:46.953Z,98219.38
2023-02-11T20:14:16.224Z,98213.81
2023-02-11T20:16:49.751Z,98218.38
2023-02-11T20:19:21.346Z,98215.00
2023-02-11T20:21:53.374Z,98213.34
2023-02-11T20:24:22.270Z,98201.38
2023-02-11T20:26:56.113Z,98211.97
2023-02-11T20:29:26.058Z,98207.59
2023-02-11T20:31:55.133Z,98204.38
2023-02-11T20:34:25.650Z,98197.50
2023-02-11T20:36:54.810Z,98201.38
2023-02-11T20:39:24.630Z,98203.22
2023-02-11T20:41:54.981Z,98197.84
2023-02-11T20:44:23.771Z,98200.00
2023-02-11T20:46:53.945Z,98200.00
2023-02-11T20:49:24.783Z,98199.84
2023-02-11T20:51:53.782Z,98206.91
2023-02-11T20:54:25.398Z,98194.13
2023-02-11T20:56:56.860Z,98199.84
2023-02-11T20:59:26.434Z,98206.22
2023-02-11T21:01:56.762Z,98208.91
2023-02-11T21:04:28.023Z,98212.44
2023-02-11T21:06:58.680Z,98206.91
2023-02-11T21:09:30.156Z,98203.88
2023-02-11T21:12:00.557Z,98201.69
2023-02-11T21:14:29.496Z,98190.44
2023-02-11T21:16:58.002Z,98204.22
2023-02-11T21:19:26.505Z,98207.22
2023-02-11T21:21:57.280Z,98202.69
2023-02-11T21:24:26.096Z,98193.13
2023-02-11T21:26:54.723Z,98197.66
2023-02-11T21:29:24.421Z,98203.88
2023-02-11T21:31:53.206Z,98204.03
2023-02-11T21:34:21.980Z,98215.63
2023-02-11T21:36:51.103Z,98216.47
2023-02-11T21:39:20.657Z,98216.47
2023-02-11T21:41:49.029Z,98213.94
2023-02-11T21:44:17.854Z,98209.06
2023-02-11T21:46:47.665Z,98211.75
2023-02-11T21:49:16.085Z,98211.06
2023-02-11T21:51:44.925Z,98215.09
2023-02-11T21:54:13.339Z,98219.47
2023-02-11T21:56:42.589Z,98217.47
2023-02-11T21:59:13.168Z,98200.81
2023-02-11T22:01:42.469Z,98221.50
2023-02-11T22:04:12.711Z,98233.59
2023-02-11T22:06:41.197Z,98237.63
2023-02-11T22:09:11.926Z,98226.00
2023-02-11T22:11:40.808Z,98238.16
2023-02-11T22:14:09.275Z,98240.84
2023-02-11T22:16:38.244Z,98254.47
2023-02-11T22:19:08.576Z,98241.72
2023-02-11T22:21:38.245Z,98253.50
2023-02-11T22:24:08.021Z,98247.63
2023-02-11T22:26:36.427Z,98249.81
2023-02-11T22:29:05.854Z,98250.50
2023-02-11T22:31:35.953Z,98253.88
2023-02-11T22:34:05.706Z,98255.72
2023-02-11T22:36:36.151Z,98259.25
2023-02-11T22:39:08.408Z,98264.31
2023-02-11T22:41:38.649Z,98260.47
2023-02-11T22:44:07.283Z,98264.13
2023-02-11T22:46:35.985Z,98264.13
2023-02-11T22:49:04.826Z,98259.75
2023-02-11T22:51:33.410Z,98245.31
2023-02-11T22:54:04.517Z,98236.06
2023-02-11T22:56:36.125Z,98244.97
2023-02-11T22:59:07.161Z,98240.59
2023-02-11T23:01:36.986Z,98248.97
2023-02-11T23:04:07.093Z,98236.88
2023-02-11T23:06:36.743Z,98251.00
2023-02-11T23:09:06.091Z,98242.94
2023-02-11T23:11:35.957Z,98249.97
2023-02-11T23:14:05.337Z,98250.47
2023-02-11T23:16:36.002Z,98270.47
2023-02-11T23:19:07.129Z,98264.25
2023-02-11T23:21:37.674Z,98261.56
2023-02-11T23:24:09.242Z,98260.56
2023-02-11T23:26:40.722Z,98254.00
2023-02-11T23:29:10.134Z,98262.06
2023-02-11T23:31:42.979Z,98269.28
2023-02-11T23:34:12.865Z,98271.28
2023-02-11T23:36:41.476Z,98269.44
2023-02-11T23:39:09.848Z,98263.06
2023-02-11T23:41:39.579Z,98261.06
2023-02-11T23:44:08.177Z,98249.63
2023-02-11T23:46:36.555Z,98262.41
2023-02-11T23:49:06.678Z,98261.38
2023-02-11T23:51:35.019Z,98260.22
2023-02-11T23:54:04.846Z,98260.06
2023-02-11T23:56:33.251Z,98259.22
2023-02-11T23:59:03.984Z,98260.06
